Time;durP1;ratioP1;P1;durP2;ratioP2;P2;SDS_P1;SDS_P2;PMS_P1;PMS_P2;Temp;Humidity;BMP_temperature;BMP_pressure;BME280_temperature;BME280_humidity;BME280_pressure;Samples;Min_cycle;Max_cycle;Signal;HPM_P1;HPM_P2
2022/04/02 00:01:53;;;;;;;9.30;2.83;;;8.20;96.70;;;;;;5091979;27;20066;-79
2022/04/02 00:04:21;;;;;;;11.18;1.50;;;8.10;96.70;;;;;;5110680;27;20069;-79
2022/04/02 00:06:50;;;;;;;9.25;2.22;;;8.10;96.70;;;;;;5109518;27;20051;-79
2022/04/02 00:09:19;;;;;;;5.22;1.00;;;8.10;96.70;;;;;;5124380;27;20039;-79
2022/04/02 00:11:47;;;;;;;6.05;1.00;;;8.00;96.70;;;;;;5092301;27;20051;-79
2022/04/02 00:14:16;;;;;;;8.15;1.25;;;8.00;96.70;;;;;;5109523;27;20518;-79
2022/04/02 00:16:45;;;;;;;5.47;0.73;;;8.10;96.70;;;;;;5122759;27;20133;-79
2022/04/02 00:19:16;;;;;;;6.57;1.30;;;8.30;96.70;;;;;;5110733;27;20031;-79
2022/04/02 00:21:44;;;;;;;5.10;1.25;;;8.30;96.70;;;;;;5126143;27;20043;-79
2022/04/02 00:24:12;;;;;;;10.57;1.77;;;8.20;96.70;;;;;;5092241;27;20036;-79
2022/04/02 00:26:40;;;;;;;4.82;1.10;;;8.20;96.70;;;;;;5126691;27;20063;-80
2022/04/02 00:29:11;;;;;;;5.35;1.20;;;8.20;96.70;;;;;;5108571;27;20039;-79
2022/04/02 00:31:40;;;;;;;8.25;1.60;;;8.20;96.70;;;;;;5090869;28;20047;-79
2022/04/02 00:34:08;;;;;;;4.40;1.10;;;8.20;96.70;;;;;;5086606;27;20047;-79
2022/04/02 00:36:38;;;;;;;9.20;1.20;;;8.20;96.70;;;;;;5109000;27;20134;-80
2022/04/02 00:39:07;;;;;;;3.22;0.73;;;8.20;96.70;;;;;;5110073;27;20039;-79
2022/04/02 00:41:36;;;;;;;4.35;1.00;;;8.20;96.70;;;;;;5108870;27;20039;-80
2022/04/02 00:44:10;;;;;;;4.07;0.95;;;8.20;96.70;;;;;;5092861;27;20036;-80
2022/04/02 00:46:40;;;;;;;4.95;0.93;;;8.20;96.70;;;;;;5109158;27;20053;-80
2022/04/02 00:49:09;;;;;;;5.40;1.35;;;8.00;96.70;;;;;;5109780;27;20039;-80
2022/04/02 00:51:42;;;;;;;6.40;0.70;;;7.90;96.70;;;;;;5089464;28;20051;-80
2022/04/02 00:54:14;;;;;;;3.40;0.65;;;8.00;96.70;;;;;;5098409;28;20040;-80
2022/04/02 00:56:43;;;;;;;4.53;0.65;;;8.10;96.70;;;;;;5101939;28;20044;-79
2022/04/02 00:59:12;;;;;;;6.28;1.00;;;8.10;96.70;;;;;;5102468;28;20042;-79
2022/04/02 01:01:43;;;;;;;3.13;0.70;;;8.10;96.70;;;;;;5102726;28;20524;-79
2022/04/02 01:04:13;;;;;;;2.40;0.60;;;8.00;96.70;;;;;;5112010;27;20048;-79
2022/04/02 01:06:46;;;;;;;5.93;0.95;;;7.90;96.70;;;;;;5094980;28;20052;-80
2022/04/02 01:09:22;;;;;;;3.03;1.00;;;7.80;96.70;;;;;;5103132;27;20048;-80
2022/04/02 01:11:54;;;;;;;6.95;1.20;;;7.90;96.70;;;;;;5087493;28;20048;-80
2022/04/02 01:14:24;;;;;;;4.80;0.70;;;7.90;96.70;;;;;;5099767;28;20051;-80
2022/04/02 01:17:01;;;;;;;3.22;0.63;;;7.80;96.70;;;;;;5097853;28;20047;-79
2022/04/02 01:19:31;;;;;;;3.15;0.55;;;7.80;96.70;;;;;;5088064;28;20058;-80
2022/04/02 01:22:06;;;;;;;4.60;0.80;;;7.80;96.70;;;;;;5099733;28;20643;-79
2022/04/02 01:24:41;;;;;;;4.70;0.98;;;7.80;96.70;;;;;;5086790;28;20478;-80
2022/04/02 01:27:10;;;;;;;5.80;1.02;;;7.80;96.70;;;;;;5089243;27;20822;-80
2022/04/02 01:29:39;;;;;;;4.43;1.10;;;7.80;96.70;;;;;;5105798;28;20096;-80
2022/04/02 01:32:10;;;;;;;5.20;0.80;;;7.80;96.70;;;;;;5082562;27;20497;-80
2022/04/02 01:34:41;;;;;;;4.13;1.10;;;7.90;96.70;;;;;;5095048;28;20047;-79
2022/04/02 01:37:17;;;;;;;3.05;0.77;;;8.10;96.70;;;;;;5088708;28;20509;-79
2022/04/02 01:39:51;;;;;;;3.88;1.02;;;8.20;96.70;;;;;;5103838;28;20117;-79
2022/04/02 01:42:24;;;;;;;3.88;1.00;;;8.10;96.70;;;;;;5097404;27;20062;-80
2022/04/02 01:45:04;;;;;;;4.72;1.15;;;8.00;96.70;;;;;;5099774;28;20046;-81
2022/04/02 01:47:51;;;;;;;7.05;0.93;;;7.90;96.70;;;;;;5117569;27;20051;-80
2022/04/02 01:50:21;;;;;;;7.03;0.80;;;8.00;96.70;;;;;;5101876;28;20736;-79
2022/04/02 01:52:54;;;;;;;4.00;0.88;;;8.00;96.70;;;;;;5082781;28;20051;-78
2022/04/02 01:55:23;;;;;;;4.07;0.73;;;8.00;96.70;;;;;;5083241;28;20048;-79
2022/04/02 01:57:56;;;;;;;6.70;1.38;;;7.80;96.70;;;;;;5067277;28;20401;-78
2022/04/02 02:00:39;;;;;;;2.15;0.43;;;7.80;96.70;;;;;;5066969;28;20041;-78
2022/04/02 02:03:07;;;;;;;5.53;0.85;;;7.90;96.70;;;;;;5065724;28;20076;-80
2022/04/02 02:05:36;;;;;;;2.78;0.73;;;8.00;96.70;;;;;;5084043;28;20040;-79
2022/04/02 02:08:07;;;;;;;2.67;0.90;;;8.10;96.70;;;;;;5099787;28;20102;-79
2022/04/02 02:10:42;;;;;;;2.65;1.23;;;8.30;96.70;;;;;;5082827;28;20044;-78
2022/04/02 02:13:39;;;;;;;;;;;8.30;96.70;;;;;;5069387;28;20053;-78
2022/04/02 02:16:15;;;;;;;2.60;0.60;;;8.40;96.70;;;;;;5063752;28;20416;-79
2022/04/02 02:18:43;;;;;;;2.75;0.70;;;8.50;96.70;;;;;;5067082;28;20051;-79
2022/04/02 02:21:11;;;;;;;4.40;0.60;;;8.60;96.70;;;;;;5082647;28;20048;-78
2022/04/02 02:23:42;;;;;;;5.97;1.55;;;8.70;96.70;;;;;;5083456;28;20036;-79
2022/04/02 02:26:10;;;;;;;3.83;0.98;;;8.60;96.70;;;;;;5082340;28;20054;-79
2022/04/02 02:28:39;;;;;;;3.25;0.65;;;8.60;96.70;;;;;;5065489;28;20048;-79
2022/04/02 02:31:12;;;;;;;3.88;0.77;;;8.60;96.70;;;;;;5082326;28;20040;-79
2022/04/02 02:36:30;;;;;;;3.40;0.57;;;8.40;96.70;;;;;;5082650;28;20063;-79
2022/04/02 02:39:10;;;;;;;3.22;1.00;;;8.40;96.70;;;;;;5078684;28;20043;-79
2022/04/02 02:41:45;;;;;;;3.03;0.57;;;8.30;96.70;;;;;;5081467;28;20121;-79
2022/04/02 02:44:26;;;;;;;5.15;0.85;;;8.30;96.70;;;;;;5082269;28;20044;-79
2022/04/02 02:47:11;;;;;;;5.88;0.80;;;8.30;96.70;;;;;;5075672;28;20048;-79
2022/04/02 02:49:42;;;;;;;5.75;0.70;;;8.20;96.70;;;;;;5082193;28;20040;-79
2022/04/02 02:52:15;;;;;;;3.75;0.60;;;8.30;96.70;;;;;;5115252;27;21480;-78
2022/04/02 02:54:46;;;;;;;4.75;0.50;;;8.50;96.70;;;;;;5101646;28;20694;-79
2022/04/02 02:57:14;;;;;;;2.95;1.00;;;8.60;96.70;;;;;;5106488;28;20139;-86
2022/04/02 02:59:42;;;;;;;2.10;0.50;;;8.50;96.70;;;;;;5107367;28;20067;-88
2022/04/02 03:02:14;;;;;;;4.32;0.70;;;8.50;96.70;;;;;;5107079;28;20084;-86
2022/04/02 03:04:46;;;;;;;2.90;0.70;;;8.50;96.70;;;;;;5092977;28;20051;-87
2022/04/02 03:07:21;;;;;;;2.80;0.80;;;8.40;96.70;;;;;;5107303;28;20040;-84
2022/04/02 03:09:51;;;;;;;6.05;0.70;;;8.10;96.70;;;;;;5107042;28;20051;-87
2022/04/02 03:12:19;;;;;;;3.75;0.80;;;8.00;96.70;;;;;;5093063;28;20050;-87
2022/04/02 03:14:47;;;;;;;3.53;0.60;;;8.10;96.70;;;;;;5108342;28;20044;-86
2022/04/02 03:17:16;;;;;;;4.78;0.75;;;8.10;96.70;;;;;;5090454;28;20047;-86
2022/04/02 03:19:46;;;;;;;4.90;0.63;;;8.00;96.70;;;;;;5090676;28;20043;-85
2022/04/02 03:22:16;;;;;;;3.97;0.68;;;7.80;96.70;;;;;;5107403;28;20040;-78
2022/04/02 03:24:45;;;;;;;3.40;0.82;;;7.70;96.70;;;;;;5105808;28;20052;-86
2022/04/02 03:27:15;;;;;;;1.85;0.43;;;7.80;96.70;;;;;;5107289;28;20043;-85
2022/04/02 03:29:48;;;;;;;3.60;0.90;;;8.00;96.70;;;;;;5107222;28;20059;-86
2022/04/02 03:32:18;;;;;;;2.55;0.60;;;8.20;96.70;;;;;;5107104;28;20090;-84
2022/04/02 03:34:46;;;;;;;3.63;0.57;;;8.30;96.70;;;;;;5107153;28;21078;-87
2022/04/02 03:37:14;;;;;;;3.45;0.98;;;8.40;96.70;;;;;;5101481;28;20070;-87
2022/04/02 03:39:42;;;;;;;3.22;0.90;;;8.40;96.70;;;;;;5102260;28;20070;-86
2022/04/02 03:42:11;;;;;;;3.30;0.60;;;8.20;96.70;;;;;;5106563;28;20063;-84
2022/04/02 03:44:43;;;;;;;1.98;0.73;;;8.10;96.70;;;;;;5107317;28;20039;-87
2022/04/02 03:47:12;;;;;;;4.13;0.60;;;8.20;96.70;;;;;;5102550;28;20044;-87
2022/04/02 03:49:47;;;;;;;6.38;0.85;;;8.10;96.70;;;;;;5087759;28;20047;-84
2022/04/02 03:52:25;;;;;;;2.97;0.73;;;8.20;96.70;;;;;;5104934;28;20307;-86
2022/04/02 03:55:01;;;;;;;;;;;8.20;96.70;;;;;;5112965;28;20067;-87
2022/04/02 03:57:29;;;;;;;2.90;0.70;;;8.10;96.70;;;;;;5102107;28;19923;-87
2022/04/02 04:00:02;;;;;;;4.32;0.60;;;8.00;96.70;;;;;;5095921;28;20053;-87
2022/04/02 04:02:40;;;;;;;3.42;0.70;;;8.00;96.70;;;;;;5107094;28;20043;-86
2022/04/02 04:05:13;;;;;;;4.47;1.00;;;7.90;96.70;;;;;;5106091;28;20047;-79
2022/04/02 04:07:43;;;;;;;4.18;0.80;;;7.90;96.70;;;;;;5103300;28;20064;-79
2022/04/02 04:10:12;;;;;;;4.63;0.68;;;7.90;96.70;;;;;;5112747;27;20048;-79
2022/04/02 04:12:47;;;;;;;2.70;0.70;;;7.90;96.70;;;;;;5104876;28;20130;-79
2022/04/02 04:15:18;;;;;;;2.75;0.60;;;7.80;96.70;;;;;;5109069;27;20060;-78
2022/04/02 04:17:48;;;;;;;3.10;0.68;;;7.90;96.70;;;;;;5102937;28;20553;-79
2022/04/02 04:20:18;;;;;;;3.42;0.90;;;7.80;96.70;;;;;;5105557;27;20048;-79
2022/04/02 04:22:46;;;;;;;5.60;0.80;;;7.70;96.70;;;;;;5088594;28;20410;-79
2022/04/02 04:25:17;;;;;;;4.97;0.88;;;7.70;96.70;;;;;;5104942;27;20043;-77
2022/04/02 04:27:47;;;;;;;3.38;0.70;;;7.60;96.70;;;;;;5101637;28;20048;-78
2022/04/02 04:30:18;;;;;;;4.55;0.70;;;7.60;96.70;;;;;;5103971;27;20066;-79
2022/04/02 04:32:46;;;;;;;3.25;0.90;;;7.70;96.70;;;;;;5105024;28;20054;-79
2022/04/02 04:35:15;;;;;;;4.60;0.60;;;7.50;96.70;;;;;;5105355;27;20127;-79
2022/04/02 04:37:43;;;;;;;2.75;0.70;;;7.40;96.70;;;;;;5101965;28;20035;-79
2022/04/02 04:40:20;;;;;;;3.25;0.77;;;7.40;96.70;;;;;;5099807;28;20042;-79
2022/04/02 04:42:49;;;;;;;2.78;0.60;;;7.40;96.70;;;;;;5095435;28;20077;-79
2022/04/02 04:45:24;;;;;;;3.03;0.43;;;7.30;96.70;;;;;;5086148;28;20050;-79
2022/04/02 04:47:53;;;;;;;2.72;1.08;;;7.30;96.70;;;;;;5099252;28;20075;-78
2022/04/02 04:50:26;;;;;;;4.53;0.82;;;7.20;96.70;;;;;;5102042;28;20071;-78
2022/04/02 04:52:58;;;;;;;2.47;0.70;;;7.30;96.70;;;;;;5107229;27;20040;-78
2022/04/02 04:55:29;;;;;;;2.90;1.08;;;7.30;96.70;;;;;;5107801;27;20047;-79
2022/04/02 04:57:58;;;;;;;4.68;0.80;;;7.40;96.70;;;;;;5108183;27;20043;-79
2022/04/02 05:00:32;;;;;;;2.58;0.93;;;7.40;96.70;;;;;;5107056;27;20070;-80
2022/04/02 05:03:01;;;;;;;3.03;0.73;;;7.50;96.70;;;;;;5107784;27;20046;-79
2022/04/02 05:05:40;;;;;;;5.13;1.00;;;7.50;96.70;;;;;;5107572;27;20123;-78
2022/04/02 05:08:13;;;;;;;3.00;0.80;;;7.50;96.70;;;;;;5107974;27;20043;-79
2022/04/02 05:10:42;;;;;;;2.83;0.93;;;7.60;96.70;;;;;;5108105;27;20047;-78
2022/04/02 05:13:17;;;;;;;3.90;0.82;;;7.50;96.70;;;;;;5101591;27;20047;-79
2022/04/02 05:15:52;;;;;;;1.48;0.70;;;7.40;96.70;;;;;;5113055;27;20046;-79
2022/04/02 05:18:23;;;;;;;5.13;1.00;;;7.50;96.70;;;;;;5089923;27;20047;-79
2022/04/02 05:20:51;;;;;;;3.63;0.88;;;7.40;96.70;;;;;;5107765;27;20416;-79
2022/04/02 05:23:21;;;;;;;4.78;1.38;;;7.40;96.70;;;;;;5107069;27;20100;-78
2022/04/02 05:25:53;;;;;;;4.68;1.90;;;7.30;96.70;;;;;;5107099;27;20059;-79
2022/04/02 05:28:24;;;;;;;4.85;2.40;;;7.50;96.70;;;;;;5124160;27;20126;-79
2022/04/02 05:30:54;;;;;;;4.30;1.55;;;7.60;96.70;;;;;;5090624;27;20049;-79
2022/04/02 05:33:22;;;;;;;3.83;1.35;;;7.80;96.70;;;;;;5125702;27;20361;-79
2022/04/02 05:36:08;;;;;;;3.83;1.00;;;8.00;96.70;;;;;;5092914;27;20123;-80
2022/04/02 05:38:36;;;;;;;3.03;0.73;;;8.10;96.70;;;;;;5107248;27;20104;-79
2022/04/02 05:41:04;;;;;;;2.65;0.70;;;8.00;96.70;;;;;;5107337;27;20094;-79
2022/04/02 05:43:33;;;;;;;4.40;1.77;;;7.80;96.70;;;;;;5106893;27;20039;-79
2022/04/02 05:46:02;;;;;;;2.65;1.02;;;7.90;96.70;;;;;;5090684;27;20107;-79
2022/04/02 05:48:31;;;;;;;3.60;0.90;;;7.90;96.70;;;;;;5124844;27;20047;-80
2022/04/02 05:50:59;;;;;;;2.47;0.85;;;7.90;96.70;;;;;;5089651;27;20069;-79
2022/04/02 05:53:27;;;;;;;1.63;0.70;;;7.70;96.70;;;;;;5086065;28;20416;-79
2022/04/02 05:55:56;;;;;;;1.77;0.73;;;7.70;96.70;;;;;;5124253;27;20051;-79
2022/04/02 05:58:24;;;;;;;3.60;0.70;;;7.80;96.70;;;;;;5090887;27;20051;-79
2022/04/02 06:00:53;;;;;;;3.65;0.85;;;7.90;96.70;;;;;;5126362;27;20035;-78
2022/04/02 06:03:23;;;;;;;1.88;0.63;;;8.10;96.70;;;;;;5122400;27;20044;-79
2022/04/02 06:05:51;;;;;;;3.13;0.85;;;8.10;96.70;;;;;;5106306;27;20073;-78
2022/04/02 06:08:19;;;;;;;2.08;0.50;;;8.20;96.70;;;;;;5126807;27;20070;-79
2022/04/02 06:10:47;;;;;;;2.17;0.50;;;8.20;96.70;;;;;;5104020;27;20120;-79
2022/04/02 06:13:15;;;;;;;3.35;1.10;;;8.30;96.70;;;;;;5106257;27;20437;-79
2022/04/02 06:15:44;;;;;;;1.50;0.40;;;8.20;96.70;;;;;;5094760;27;20478;-79
2022/04/02 06:18:17;;;;;;;1.90;0.60;;;8.20;96.70;;;;;;5105879;27;20623;-79
2022/04/02 06:20:48;;;;;;;2.70;0.70;;;8.20;96.70;;;;;;5124516;27;20042;-77
2022/04/02 06:23:17;;;;;;;1.77;0.68;;;8.10;96.70;;;;;;5106236;27;20073;-82
2022/04/02 06:25:46;;;;;;;1.52;0.60;;;8.20;96.70;;;;;;5097067;27;20492;-83
2022/04/02 06:28:14;;;;;;;2.67;0.68;;;8.20;96.70;;;;;;5090023;27;20043;-78
2022/04/02 06:30:42;;;;;;;2.67;0.50;;;8.30;96.70;;;;;;5102581;27;20545;-78
2022/04/02 06:33:10;;;;;;;3.67;0.80;;;8.20;96.70;;;;;;5102271;27;20050;-78
2022/04/02 06:35:39;;;;;;;3.03;0.60;;;8.20;96.70;;;;;;5087596;27;20050;-80
2022/04/02 06:38:09;;;;;;;2.95;0.75;;;8.30;96.70;;;;;;5087562;27;20129;-77
2022/04/02 06:40:37;;;;;;;2.30;0.70;;;8.40;96.70;;;;;;5104286;28;20039;-82
2022/04/02 06:43:05;;;;;;;3.63;1.27;;;8.50;96.70;;;;;;5101569;27;20157;-83
2022/04/02 06:45:48;;;;;;;2.40;1.35;;;8.30;96.70;;;;;;5111010;27;20135;-83
2022/04/02 06:48:16;;;;;;;2.70;0.90;;;7.80;96.70;;;;;;5111520;27;20038;-84
2022/04/02 06:50:45;;;;;;;3.03;0.90;;;7.70;96.70;;;;;;5114311;27;20055;-83
2022/04/02 06:53:15;;;;;;;4.13;1.10;;;7.50;96.70;;;;;;5124216;27;20040;-83
2022/04/02 06:55:45;;;;;;;3.90;1.00;;;7.50;96.70;;;;;;5122631;27;20051;-83
2022/04/02 06:58:25;;;;;;;4.60;1.60;;;7.60;96.70;;;;;;5111115;27;20472;-81
2022/04/02 07:00:53;;;;;;;5.03;1.55;;;7.60;96.70;;;;;;5110502;27;20046;-83
2022/04/02 07:03:22;;;;;;;5.65;2.10;;;7.60;96.70;;;;;;5120718;27;20047;-86
2022/04/02 07:05:51;;;;;;;2.22;0.93;;;7.40;96.70;;;;;;5111217;27;20126;-84
2022/04/02 07:08:20;;;;;;;2.97;1.02;;;6.90;96.70;;;;;;5108879;27;20065;-83
2022/04/02 07:10:49;;;;;;;4.13;1.48;;;6.60;96.70;;;;;;5092274;27;20058;-84
2022/04/02 07:13:17;;;;;;;2.85;1.17;;;6.80;96.70;;;;;;5101440;28;20134;-84
2022/04/02 07:15:46;;;;;;;2.28;0.88;;;7.00;96.70;;;;;;5123369;28;20046;-81
2022/04/02 07:18:14;;;;;;;4.68;0.98;;;7.00;96.70;;;;;;5108259;27;20496;-83
2022/04/02 07:20:42;;;;;;;1.63;0.80;;;7.10;96.70;;;;;;5090728;28;20100;-81
2022/04/02 07:23:12;;;;;;;3.63;0.88;;;7.10;96.70;;;;;;5106089;28;20051;-83
2022/04/02 07:25:43;;;;;;;1.33;0.63;;;7.10;96.70;;;;;;5108192;28;20039;-78
2022/04/02 07:28:14;;;;;;;2.47;1.10;;;7.20;96.70;;;;;;5099647;28;20486;-77
2022/04/02 07:30:43;;;;;;;2.53;0.70;;;7.20;96.70;;;;;;5120271;28;20553;-77
2022/04/02 07:33:21;;;;;;;2.25;0.90;;;7.30;96.70;;;;;;5086974;28;20040;-76
2022/04/02 07:35:55;;;;;;;5.32;1.45;;;7.30;96.70;;;;;;5108713;27;20560;-84
2022/04/02 07:38:33;;;;;;;4.22;1.42;;;7.50;96.70;;;;;;5085456;28;20039;-84
2022/04/02 07:41:12;;;;;;;2.08;1.10;;;7.60;96.70;;;;;;5109307;27;20492;-83
2022/04/02 07:43:46;;;;;;;2.22;0.70;;;7.90;96.70;;;;;;5104343;27;20043;-80
2022/04/02 07:46:21;;;;;;;1.92;0.52;;;7.90;96.70;;;;;;5130159;27;20067;-82
2022/04/02 07:48:49;;;;;;;0.98;0.68;;;8.10;96.70;;;;;;5097380;27;20442;-82
2022/04/02 07:51:28;;;;;;;;;;;8.20;96.70;;;;;;5093860;27;20082;-83
2022/04/02 07:54:01;;;;;;;1.98;0.80;;;8.20;96.70;;;;;;5113767;27;20002;-83
2022/04/02 07:56:37;;;;;;;2.40;0.60;;;8.20;96.70;;;;;;5114408;27;20051;-83
2022/04/02 07:59:09;;;;;;;2.33;0.80;;;8.30;96.70;;;;;;5113347;27;20603;-83
2022/04/02 08:01:39;;;;;;;2.85;0.70;;;8.30;96.70;;;;;;5131623;27;20035;-84
2022/04/02 08:04:10;;;;;;;1.23;0.50;;;8.40;96.70;;;;;;5092796;28;20055;-79
2022/04/02 08:06:40;;;;;;;7.30;4.78;;;8.40;96.70;;;;;;5122274;27;20084;-79
2022/04/02 08:09:12;;;;;;;6.53;3.42;;;8.50;96.70;;;;;;5109352;27;20044;-84
2022/04/02 08:11:42;;;;;;;3.70;2.00;;;8.50;96.70;;;;;;5115966;27;20039;-83
2022/04/02 08:14:11;;;;;;;2.47;1.33;;;8.40;96.70;;;;;;5110919;27;20032;-85
2022/04/02 08:16:43;;;;;;;3.13;1.33;;;8.40;96.70;;;;;;5096930;28;20078;-84
2022/04/02 08:19:14;;;;;;;3.08;1.50;;;8.20;96.70;;;;;;5129259;27;20039;-84
2022/04/02 08:21:42;;;;;;;1.60;0.70;;;8.20;96.70;;;;;;5112671;27;20105;-83
2022/04/02 08:24:10;;;;;;;1.45;0.68;;;8.10;96.70;;;;;;5131748;27;20066;-83
2022/04/02 08:26:56;;;;;;;1.80;0.70;;;8.10;96.70;;;;;;5108376;28;20536;-84
2022/04/02 08:29:42;;;;;;;1.90;0.75;;;8.10;96.70;;;;;;5110025;27;20045;-84
2022/04/02 08:32:20;;;;;;;1.35;0.63;;;8.10;96.70;;;;;;5125633;27;20055;-84
2022/04/02 08:35:06;;;;;;;1.85;0.50;;;8.00;96.70;;;;;;5114263;27;20043;-83
2022/04/02 08:38:04;;;;;;;1.25;0.60;;;8.10;96.70;;;;;;5129594;27;20525;-84
2022/04/02 08:41:14;;;;;;;2.22;0.80;;;8.20;96.70;;;;;;5106799;27;20047;-84
2022/04/02 08:44:22;;;;;;;1.60;0.80;;;8.30;96.70;;;;;;5103599;27;20050;-84
2022/04/02 08:47:11;;;;;;;1.85;0.70;;;8.50;96.70;;;;;;5112849;27;20047;-85
2022/04/02 08:49:42;;;;;;;0.90;0.70;;;8.60;96.70;;;;;;5114230;27;20043;-84
2022/04/02 08:52:22;;;;;;;1.70;0.80;;;8.70;96.70;;;;;;5126652;27;20051;-82
2022/04/02 08:55:15;;;;;;;4.25;1.05;;;8.90;96.70;;;;;;5112476;27;20066;-83
2022/04/02 08:58:08;;;;;;;1.73;0.63;;;9.10;96.70;;;;;;5128146;27;20069;-83
2022/04/02 09:00:44;;;;;;;2.47;0.73;;;9.30;96.70;;;;;;5119755;27;20087;-83
2022/04/02 09:03:51;;;;;;;3.53;0.47;;;9.60;96.70;;;;;;5085451;27;20425;-82
2022/04/02 09:06:49;;;;;;;1.42;0.50;;;9.80;96.70;;;;;;5108044;27;20373;-82
2022/04/02 09:09:43;;;;;;;3.80;0.55;;;10.10;96.70;;;;;;5089309;27;20047;-80
2022/04/02 09:12:36;;;;;;;1.98;0.60;;;10.40;96.70;;;;;;5125921;27;20320;-81
2022/04/02 09:15:10;;;;;;;3.17;0.90;;;10.60;96.70;;;;;;5105792;27;20039;-81
2022/04/02 09:17:58;;;;;;;5.25;1.40;;;10.60;96.70;;;;;;5094609;27;20172;-83
2022/04/02 09:20:46;;;;;;;2.13;1.00;;;10.50;96.70;;;;;;5126197;27;20039;-82
2022/04/02 09:23:31;;;;;;;2.67;0.68;;;10.40;96.70;;;;;;5104426;27;20046;-83
2022/04/02 09:26:28;;;;;;;2.67;0.65;;;10.30;96.70;;;;;;5109092;27;20043;-83
2022/04/02 09:29:15;;;;;;;2.00;0.60;;;10.30;96.70;;;;;;5103027;27;20126;-82
2022/04/02 09:32:19;;;;;;;2.40;1.13;;;10.30;96.70;;;;;;5111574;27;20150;-83
2022/04/02 09:35:35;;;;;;;2.00;0.93;;;10.20;96.70;;;;;;5106697;27;20036;-83
2022/04/02 09:38:40;;;;;;;4.93;3.45;;;10.10;96.70;;;;;;5064636;27;20169;-83
2022/04/02 09:41:27;;;;;;;3.03;1.60;;;10.00;96.70;;;;;;5127858;27;20051;-81
2022/04/02 09:44:36;;;;;;;3.95;1.73;;;9.90;96.70;;;;;;5110390;27;20122;-82
2022/04/02 09:47:29;;;;;;;3.10;1.63;;;9.90;96.70;;;;;;5128228;27;20560;-82
2022/04/02 09:50:17;;;;;;;2.65;0.90;;;9.80;96.70;;;;;;5099101;28;20039;-83
2022/04/02 09:52:53;;;;;;;2.15;0.73;;;9.80;96.70;;;;;;5127470;27;20159;-84
2022/04/02 09:55:24;;;;;;;3.33;0.88;;;9.80;96.70;;;;;;5112008;27;20070;-82
2022/04/02 09:58:39;;;;;;;1.77;0.77;;;9.80;96.70;;;;;;5091933;27;20047;-83
2022/04/02 10:01:53;;;;;;;2.25;0.90;;;9.90;96.70;;;;;;5064336;27;20058;-83
2022/04/02 10:04:42;;;;;;;2.47;0.90;;;9.90;96.70;;;;;;5099046;27;20146;-82
2022/04/02 10:07:36;;;;;;;2.90;0.60;;;9.90;96.70;;;;;;5095444;27;20063;-82
2022/04/02 10:10:08;;;;;;;1.48;0.50;;;10.10;96.70;;;;;;5113374;27;20046;-82
2022/04/02 10:12:42;;;;;;;3.65;1.00;;;10.20;96.70;;;;;;5114113;27;20139;-81
2022/04/02 10:15:21;;;;;;;2.70;0.82;;;10.50;96.70;;;;;;5112288;27;20508;-82
2022/04/02 10:17:52;;;;;;;4.85;0.70;;;10.90;96.70;;;;;;5100126;27;20051;-77
2022/04/02 10:20:24;;;;;;;3.90;1.02;;;11.00;96.70;;;;;;5091557;27;20055;-76
2022/04/02 10:23:02;;;;;;;3.30;1.13;;;11.20;96.70;;;;;;5094875;27;20497;-76
2022/04/02 10:25:33;;;;;;;2.38;0.77;;;11.40;96.70;;;;;;5113453;27;20039;-77
2022/04/02 10:28:03;;;;;;;2.15;0.70;;;11.50;96.70;;;;;;5097727;27;20586;-78
2022/04/02 10:30:33;;;;;;;3.20;0.80;;;11.60;96.70;;;;;;5099415;27;20609;-77
2022/04/02 10:35:56;;;;;;;2.78;0.80;;;12.10;96.70;;;;;;5124119;27;20039;-78
2022/04/02 10:38:39;;;;;;;1.75;1.00;;;12.30;96.70;;;;;;5106822;27;20051;-78
2022/04/02 10:41:11;;;;;;;3.05;0.65;;;12.50;96.70;;;;;;5107365;27;20398;-77
2022/04/02 10:44:16;;;;;;;1.83;0.65;;;12.60;96.70;;;;;;5101218;27;20092;-77
2022/04/02 10:47:48;;;;;;;2.97;0.85;;;12.40;96.70;;;;;;5100085;27;20649;-77
2022/04/02 10:50:18;;;;;;;2.85;0.57;;;12.60;96.70;;;;;;5103897;27;20078;-76
2022/04/02 10:52:51;;;;;;;4.25;0.70;;;12.80;96.70;;;;;;5101189;27;20047;-76
2022/04/02 10:55:23;;;;;;;2.47;1.10;;;12.80;96.70;;;;;;5099917;27;20051;-76
2022/04/02 10:57:53;;;;;;;4.63;1.45;;;12.90;96.70;;;;;;5104455;27;20035;-77
2022/04/02 11:04:58;;;;;;;2.55;0.70;;;13.00;96.70;;;;;;5121552;27;20420;-77
2022/04/02 11:07:28;;;;;;;5.43;1.35;;;13.00;96.70;;;;;;5102486;27;20061;-82
2022/04/02 11:10:01;;;;;;;3.45;1.23;;;12.70;96.70;;;;;;5128099;27;20061;-83
2022/04/02 11:12:41;;;;;;;2.95;0.82;;;12.70;96.70;;;;;;5104053;28;20050;-84
2022/04/02 11:15:18;;;;;;;3.85;0.88;;;12.50;96.70;;;;;;5113878;27;20228;-78
2022/04/02 11:17:47;;;;;;;4.18;0.70;;;12.30;96.70;;;;;;5086703;28;20442;-77
2022/04/02 11:20:17;;;;;;;1.70;0.70;;;12.00;96.70;;;;;;5115404;28;20759;-78
2022/04/02 11:23:11;;;;;;;4.10;0.85;;;11.90;96.70;;;;;;5103495;28;20111;-77
2022/04/02 11:25:45;;;;;;;3.17;0.88;;;11.70;96.70;;;;;;5120305;28;20039;-78
2022/04/02 11:28:17;;;;;;;1.88;0.75;;;11.70;96.70;;;;;;5101870;27;20163;-78
2022/04/02 11:30:47;;;;;;;3.40;0.70;;;11.60;96.70;;;;;;5092449;27;20048;-77
2022/04/02 11:33:18;;;;;;;1.58;0.52;;;11.60;96.70;;;;;;5096795;28;20039;-77
2022/04/02 11:35:48;;;;;;;3.00;0.95;;;11.60;96.70;;;;;;5101368;28;20039;-78
2022/04/02 11:38:37;;;;;;;2.50;0.85;;;11.60;96.70;;;;;;5082142;28;20049;-77
2022/04/02 11:41:15;;;;;;;2.78;0.63;;;11.50;96.70;;;;;;5119820;27;20481;-77
2022/04/02 11:43:46;;;;;;;2.88;0.75;;;11.40;96.70;;;;;;5103444;28;20039;-78
2022/04/02 11:46:15;;;;;;;4.28;0.98;;;11.30;96.70;;;;;;5123245;27;20042;-78
2022/04/02 11:48:52;;;;;;;2.45;0.75;;;11.30;96.70;;;;;;5103135;28;20043;-75
2022/04/02 11:51:22;;;;;;;1.55;0.80;;;11.30;96.70;;;;;;5104891;28;20059;-75
2022/04/02 11:53:51;;;;;;;1.63;0.63;;;11.10;96.70;;;;;;5115022;28;20051;-75
2022/04/02 11:56:25;;;;;;;2.67;0.98;;;10.70;96.70;;;;;;5122699;27;20043;-74
2022/04/02 11:58:57;;;;;;;2.10;0.47;;;10.50;96.70;;;;;;5099347;28;20078;-74
2022/04/02 12:01:25;;;;;;;1.92;0.50;;;10.10;96.70;;;;;;5105204;28;20150;-74
2022/04/02 12:04:09;;;;;;;1.35;0.70;;;9.80;96.70;;;;;;5086145;28;20124;-75
2022/04/02 12:06:38;;;;;;;2.63;0.60;;;9.50;96.70;;;;;;5101969;27;20131;-75
2022/04/02 12:09:14;;;;;;;1.70;0.60;;;9.50;96.70;;;;;;5103465;28;20050;-76
2022/04/02 12:11:43;;;;;;;1.92;0.60;;;9.50;96.70;;;;;;5100336;28;20066;-76
2022/04/02 12:14:27;;;;;;;4.00;0.50;;;9.40;96.70;;;;;;5104066;28;20043;-76
2022/04/02 12:17:06;;;;;;;1.60;0.52;;;9.20;96.70;;;;;;5103501;28;20046;-76
2022/04/02 12:19:41;;;;;;;3.35;0.90;;;9.00;96.70;;;;;;5103132;28;20051;-76
2022/04/02 12:22:21;;;;;;;2.45;0.88;;;9.00;96.70;;;;;;5103121;28;20138;-75
2022/04/02 12:24:52;;;;;;;2.00;0.73;;;9.10;96.70;;;;;;5105249;28;20066;-75
2022/04/02 12:27:21;;;;;;;4.25;0.77;;;9.00;96.70;;;;;;5122224;27;20835;-74
2022/04/02 12:29:52;;;;;;;2.75;0.57;;;8.90;96.70;;;;;;5108405;27;20046;-75
2022/04/02 12:32:29;;;;;;;44.92;29.95;;;8.80;96.70;;;;;;5107467;27;20050;-74
2022/04/02 12:34:59;;;;;;;4.25;1.63;;;8.90;96.70;;;;;;5105561;27;20169;-74
2022/04/02 12:37:30;;;;;;;3.50;1.95;;;8.80;96.70;;;;;;5126551;27;20042;-73
2022/04/02 12:40:16;;;;;;;7.38;1.70;;;8.80;96.70;;;;;;5108937;27;20043;-76
2022/04/02 12:42:45;;;;;;;4.57;2.47;;;8.90;96.70;;;;;;5125527;27;20126;-74
2022/04/02 12:45:16;;;;;;;5.35;1.65;;;8.90;96.70;;;;;;5126871;27;20463;-73
2022/04/02 12:48:01;;;;;;;1.98;0.90;;;9.00;96.70;;;;;;5107844;27;20576;-73
2022/04/02 12:50:31;;;;;;;2.67;0.85;;;8.90;96.70;;;;;;5122793;27;20047;-74
2022/04/02 12:52:59;;;;;;;2.15;1.00;;;9.00;96.70;;;;;;5107583;27;20047;-75
2022/04/02 12:55:30;;;;;;;2.50;1.20;;;8.90;96.70;;;;;;5106721;27;20284;-74
2022/04/02 12:58:01;;;;;;;4.63;1.23;;;9.00;96.70;;;;;;5103006;27;20093;-74
2022/04/02 13:00:36;;;;;;;2.42;1.10;;;8.90;96.70;;;;;;5125981;27;20453;-74
2022/04/02 13:03:05;;;;;;;3.47;1.38;;;8.80;96.70;;;;;;5107116;27;20107;-74
2022/04/02 13:05:45;;;;;;;2.97;1.30;;;8.80;96.70;;;;;;5102006;27;20035;-73
2022/04/02 13:08:24;;;;;;;3.03;1.20;;;8.80;96.70;;;;;;5123683;27;20445;-74
2022/04/02 13:10:54;;;;;;;1.88;0.85;;;8.90;96.70;;;;;;5123765;27;20089;-74
2022/04/02 13:13:39;;;;;;;2.50;1.13;;;8.80;96.70;;;;;;5107581;27;20130;-74
2022/04/02 13:16:10;;;;;;;3.22;1.30;;;8.80;96.70;;;;;;5125661;27;20039;-75
2022/04/02 13:21:34;;;;;;;12.80;6.93;;;8.90;96.70;;;;;;5125117;27;20047;-75
2022/04/02 13:24:30;;;;;;;30.33;21.37;;;9.00;96.70;;;;;;5090134;27;20177;-77
2022/04/02 13:27:41;;;;;;;13.00;8.65;;;8.90;96.70;;;;;;5106031;27;20053;-76
2022/04/02 13:30:10;;;;;;;9.40;5.25;;;9.00;96.70;;;;;;5105080;27;20473;-75
2022/04/02 13:33:38;;;;;;;12.77;6.47;;;9.00;96.70;;;;;;5105307;27;20500;-74
2022/04/02 13:36:21;;;;;;;10.02;6.40;;;9.00;96.70;;;;;;5106168;27;20092;-73
2022/04/02 13:38:57;;;;;;;8.73;5.78;;;9.00;96.70;;;;;;5101341;27;20047;-74
2022/04/02 13:41:28;;;;;;;8.70;4.78;;;9.10;96.70;;;;;;5106788;27;20058;-74
2022/04/02 13:43:58;;;;;;;4.07;2.58;;;9.20;96.70;;;;;;5124456;27;20070;-75
2022/04/02 13:46:29;;;;;;;3.72;2.13;;;9.20;96.70;;;;;;5091247;27;20085;-73
2022/04/02 13:49:06;;;;;;;34.80;24.02;;;9.20;96.70;;;;;;5121456;27;20142;-73